Miami, FL

07:34 AM EDT am 24. Mai 2017 (GMT -0400)
U of Miami Health System WeatherSTEM | | Change Station

Höhe 68 ft 25.79 °N, 80.22 °W | Updated 1 minute ago

Teils Wolkig
Teils Wolkig
80.6 °F
gefühlte 87 °F
N
7.0
Wind Wechselnd Wind aus Süd-Südost

Heute
Max. -- | schwach -- °F
--% Regenrisiko
Gestern
Max. -- | schwach -- °F
Precip. -- inch
Druck 29.86 inch
Sichtweite 10.0 Meilen
Wolken Few 2000 ft
Few 15000 ft
Teils Wolkig 25000 ft
Wolkig 30000 ft
Hitzeindex 87 °F
Taupunkt 76 °F
Feuchtigkeit 86%
Regen 0.00 inch
Schneehöhe Nicht verfügbar..
6:31 AM 8:04 PM
Letztes Viertel, 3% visible
METAR KMIA 241053Z 17008KT 10SM FEW020 FEW150 SCT250 BKN300 27/24 A2986 RMK AO2 SLP112 T02720239
Druck 29.86 inch
Sichtweite 10.0 Meilen
Wolken Few 2000 ft
Few 15000 ft
Teils Wolkig 25000 ft
Wolkig 30000 ft
Hitzeindex 87 °F
Taupunkt 76 °F
Feuchtigkeit 86%
Regen 0.00 inch
Schneehöhe Nicht verfügbar..
6:31 AM 8:04 PM
Letztes Viertel, 3% visible
METAR KMIA 241053Z 17008KT 10SM FEW020 FEW150 SCT250 BKN300 27/24 A2986 RMK AO2 SLP112 T02720239

Get Severe Weather Alerts

Thanks for signing up!

Be on the lookout for a verification email in your inbox.

You'll start receiving the daily forecast at 6 AM.

×

10-Day Weather Forecast

Almanac

Astronomie

May. 24, 2017 Aufgang Untergang
Genaue Zeit
Bürgerliche Dämmerung
Nautische Dämmerung
Astronomische Dämmerung
Mond
Länge des sichtbaren Lichts
Tageslänge
Tomorrow will be .
, % of the Moon is Illuminated

Heutige Rekorde

State Highs State Lows

Community

WunderPhotos

Category 6

Welcome to Category 6. This is the collective home for Weather Underground's featured writeups by Dr. Jeff Masters (right), Bob Henson (left), Chris Burt, and other regular contributors.

Nearby

Luftqualität

  Luftqualität LQ Index Schadstoff
Not available.

Schneehöhe

Station Depth Höhe

Erdbebenaktivität

Stadt Distance Mag. Time & Date
Minimum magnitude displayed is 2.5.

küstennahe Wassertemperaturen

Ort Temperatur

Stations

Wetterstationen in der Umgebung

Stationsstandort Temp. Windchill Taupunkt Feuchtigkeit Wind Precip. Höhe Aktualisiert Art
                   

Watches & Warnings

There are currently no watches in effect.